Time;durP1;ratioP1;P1;durP2;ratioP2;P2;SDS_P1;SDS_P2;PMS_P1;PMS_P2;Temp;Humidity;BMP_temperature;BMP_pressure;BME280_temperature;BME280_humidity;BME280_pressure;Samples;Min_cycle;Max_cycle;Signal;HPM_P1;HPM_P2
2023/02/26 00:00:51;;;;;;;;;;;;;;;15.16;67.46;99628.06;7396871;19;1400;-79
2023/02/26 00:03:19;;;;;;;;;;;;;;;15.17;67.37;99636.88;7397980;19;1000;-79
2023/02/26 00:05:47;;;;;;;;;;;;;;;15.19;67.41;99627.78;7396866;19;1474;-79
2023/02/26 00:08:15;;;;;;;;;;;;;;;15.20;67.25;99623.28;7401573;19;1023;-79
2023/02/26 00:10:43;;;;;;;;;;;;;;;15.21;67.20;99609.00;7403650;19;1395;-79
2023/02/26 00:13:12;;;;;;;;;;;;;;;15.22;67.41;99610.66;7405718;19;1075;-79
2023/02/26 00:15:43;;;;;;;;;;;;;;;15.18;67.47;99603.94;7403929;19;1862;-79
2023/02/26 00:18:15;;;;;;;;;;;;;;;15.16;67.35;99609.44;7403289;19;1417;-79
2023/02/26 00:20:44;;;;;;;;;;;;;;;15.18;67.55;99622.56;7405226;19;1084;-79
2023/02/26 00:23:13;;;;;;;;;;;;;;;15.14;67.40;99611.38;7405876;19;989;-79
2023/02/26 00:25:41;;;;;;;;;;;;;;;15.16;67.53;99596.13;7404849;19;1075;-79
2023/02/26 00:28:10;;;;;;;;;;;;;;;15.16;67.17;99612.09;7405379;19;1024;-79
2023/02/26 00:30:39;;;;;;;;;;;;;;;15.14;67.16;99608.72;7404729;19;1158;-79
2023/02/26 00:33:11;;;;;;;;;;;;;;;15.13;67.44;99608.84;7405063;19;1033;-79
2023/02/26 00:35:39;;;;;;;;;;;;;;;15.14;67.42;99616.72;7403848;19;1907;-79
2023/02/26 00:38:08;;;;;;;;;;;;;;;15.11;67.39;99591.19;7404570;19;1037;-80
2023/02/26 00:40:38;;;;;;;;;;;;;;;15.10;67.16;99607.31;7404620;19;993;-79
2023/02/26 00:43:07;;;;;;;;;;;;;;;15.09;67.16;99590.47;7404697;19;1387;-80
2023/02/26 00:45:36;;;;;;;;;;;;;;;15.09;67.68;99585.16;7402956;19;1407;-79
2023/02/26 00:48:28;;;;;;;;;;;;;;;15.10;67.18;99602.81;7404624;19;838;-79
2023/02/26 00:51:01;;;;;;;;;;;;;;;15.09;67.39;99601.13;7403591;19;1067;-79
2023/02/26 00:53:33;;;;;;;;;;;;;;;15.10;67.54;99586.84;7402312;19;1180;-79
2023/02/26 00:56:01;;;;;;;;;;;;;;;15.08;67.40;99591.47;7402367;19;1845;-80
2023/02/26 00:58:29;;;;;;;;;;;;;;;15.14;67.54;99595.41;7404733;19;1059;-80
2023/02/26 01:00:57;;;;;;;;;;;;;;;15.09;67.40;99605.63;7403713;19;1031;-80
2023/02/26 01:03:26;;;;;;;;;;;;;;;15.07;67.26;99603.09;7404068;19;1131;-79
2023/02/26 01:05:55;;;;;;;;;;;;;;;15.09;67.17;99601.13;7401778;19;1407;-79
2023/02/26 01:08:30;;;;;;;;;;;;;;;15.09;67.31;99606.44;7401842;19;1395;-79
2023/02/26 01:10:58;;;;;;;;;;;;;;;15.09;67.13;99595.81;7402058;19;1482;-79
2023/02/26 01:13:27;;;;;;;;;;;;;;;15.14;67.28;99591.88;7403657;19;993;-79
2023/02/26 01:15:57;;;;;;;;;;;;;;;15.09;67.24;99581.66;7401297;19;2155;-79
2023/02/26 01:18:27;;;;;;;;;;;;;;;15.09;67.20;99590.47;7402989;19;1075;-79
2023/02/26 01:20:58;;;;;;;;;;;;;;;15.09;67.28;99611.78;7403678;19;993;-80
2023/02/26 01:23:33;;;;;;;;;;;;;;;15.08;67.54;99583.50;7403661;19;981;-80
2023/02/26 01:26:03;;;;;;;;;;;;;;;15.08;67.27;99586.16;7403309;19;1115;-80
2023/02/26 01:28:33;;;;;;;;;;;;;;;15.09;67.30;99600.28;7403285;19;971;-79
2023/02/26 01:31:04;;;;;;;;;;;;;;;15.09;67.15;99587.81;7403076;19;1171;-79
2023/02/26 01:33:36;;;;;;;;;;;;;;;15.13;67.50;99591.06;7401645;19;1478;-79
2023/02/26 01:36:08;;;;;;;;;;;;;;;15.09;67.11;99586.97;7401113;19;1870;-79
2023/02/26 01:38:44;;;;;;;;;;;;;;;15.08;67.36;99595.94;7402643;19;988;-80
2023/02/26 01:41:20;;;;;;;;;;;;;;;15.10;67.51;99602.00;7402839;19;1130;-80
2023/02/26 01:43:53;;;;;;;;;;;;;;;15.09;67.22;99589.66;7403060;19;1013;-80
2023/02/26 01:46:24;;;;;;;;;;;;;;;15.08;67.29;99587.94;7402603;19;1005;-79
2023/02/26 01:48:54;;;;;;;;;;;;;;;15.05;67.31;99594.41;7402281;19;1115;-79
2023/02/26 01:51:37;;;;;;;;;;;;;;;15.07;67.47;99597.75;7400857;19;1536;-79
2023/02/26 01:54:07;;;;;;;;;;;;;;;15.08;67.13;99585.28;7403025;19;1095;-79
2023/02/26 01:56:36;;;;;;;;;;;;;;;15.05;67.12;99602.38;7401747;19;1839;-79
2023/02/26 01:59:05;;;;;;;;;;;;;;;15.06;67.49;99589.91;7402117;19;1008;-80
2023/02/26 02:01:33;;;;;;;;;;;;;;;15.07;67.13;99591.59;7402489;19;973;-80
2023/02/26 02:04:02;;;;;;;;;;;;;;;15.08;67.32;99591.47;7401841;19;1052;-80
2023/02/26 02:06:31;;;;;;;;;;;;;;;15.03;67.19;99575.06;7401989;19;1009;-80
2023/02/26 02:08:59;;;;;;;;;;;;;;;15.06;67.49;99568.59;7401702;19;985;-80
2023/02/26 02:11:30;;;;;;;;;;;;;;;15.05;67.54;99569.59;7401964;19;1091;-80
2023/02/26 02:14:05;;;;;;;;;;;;;;;15.09;67.12;99571.84;7401919;19;979;-79
2023/02/26 02:16:39;;;;;;;;;;;;;;;15.06;67.28;99573.94;7400389;19;1829;-79
2023/02/26 02:19:20;;;;;;;;;;;;;;;15.06;67.48;99572.13;7402165;19;1021;-80
2023/02/26 02:21:56;;;;;;;;;;;;;;;15.04;67.36;99566.09;7402403;19;940;-80
2023/02/26 02:24:32;;;;;;;;;;;;;;;15.09;67.29;99558.53;7401566;19;962;-80
2023/02/26 02:27:15;;;;;;;;;;;;;;;15.05;67.51;99551.81;7401694;19;1038;-80
2023/02/26 02:30:04;;;;;;;;;;;;;;;15.06;67.34;99573.94;7401016;19;1083;-80
2023/02/26 02:32:37;;;;;;;;;;;;;;;15.02;67.44;99565.41;7400367;19;1240;-80
2023/02/26 02:35:11;;;;;;;;;;;;;;;15.04;67.36;99563.44;7398819;19;1849;-80
2023/02/26 02:37:42;;;;;;;;;;;;;;;15.05;67.33;99577.59;7400435;19;1211;-80
2023/02/26 02:40:13;;;;;;;;;;;;;;;15.02;67.38;99554.75;7400642;19;993;-80
2023/02/26 02:42:43;;;;;;;;;;;;;;;15.01;67.25;99561.06;7401158;19;1046;-80
2023/02/26 02:45:16;;;;;;;;;;;;;;;15.00;67.31;99540.75;7401743;19;1040;-80
2023/02/26 02:47:50;;;;;;;;;;;;;;;15.03;67.54;99547.59;7400330;19;1096;-80
2023/02/26 02:50:21;;;;;;;;;;;;;;;15.06;67.32;99557.97;7401277;19;1024;-79
2023/02/26 02:52:52;;;;;;;;;;;;;;;15.04;67.22;99550.13;7400230;19;1190;-79
2023/02/26 02:55:22;;;;;;;;;;;;;;;15.03;67.23;99563.56;7399952;19;1843;-80
2023/02/26 02:57:52;;;;;;;;;;;;;;;15.03;67.06;99560.91;7400302;19;1118;-80
2023/02/26 03:00:23;;;;;;;;;;;;;;;15.02;67.33;99554.75;7398529;19;1403;-80
2023/02/26 03:02:56;;;;;;;;;;;;;;;15.06;66.90;99548.19;7400208;19;1056;-80
2023/02/26 03:05:25;;;;;;;;;;;;;;;15.02;67.22;99554.75;7400617;19;1049;-80
2023/02/26 03:07:54;;;;;;;;;;;;;;;15.04;67.18;99555.47;7400182;19;1028;-79
2023/02/26 03:10:23;;;;;;;;;;;;;;;15.01;67.07;99555.72;7399678;19;992;-79
2023/02/26 03:12:51;;;;;;;;;;;;;;;15.01;66.94;99550.41;7399819;19;1012;-80
2023/02/26 03:15:23;;;;;;;;;;;;;;;15.02;67.22;99564.53;7398617;19;1814;-79
2023/02/26 03:17:58;;;;;;;;;;;;;;;15.00;66.86;99553.19;7400786;19;982;-79
2023/02/26 03:20:28;;;;;;;;;;;;;;;15.02;66.72;99554.75;7400188;19;1131;-79
2023/02/26 03:23:03;;;;;;;;;;;;;;;15.02;66.53;99553.91;7399744;19;989;-79
2023/02/26 03:25:34;;;;;;;;;;;;;;;15.02;66.95;99549.44;7400085;19;1030;-79
2023/02/26 03:28:07;;;;;;;;;;;;;;;15.02;66.84;99551.22;7400499;19;951;-79
2023/02/26 03:30:39;;;;;;;;;;;;;;;15.02;66.99;99546.78;7399725;19;1093;-79
2023/02/26 03:33:14;;;;;;;;;;;;;;;15.04;66.82;99570.56;7400068;19;1072;-79
2023/02/26 03:35:45;;;;;;;;;;;;;;;15.04;66.43;99549.28;7396927;19;1840;-79
2023/02/26 03:38:17;;;;;;;;;;;;;;;15.00;66.79;99556.72;7400053;19;1041;-79
2023/02/26 03:40:47;;;;;;;;;;;;;;;14.99;66.64;99549.69;7399741;19;1404;-79
2023/02/26 03:43:19;;;;;;;;;;;;;;;15.02;66.66;99576.06;7405353;19;973;-79
2023/02/26 03:45:50;;;;;;;;;;;;;;;15.01;66.40;99554.88;7406097;19;989;-79
2023/02/26 03:48:24;;;;;;;;;;;;;;;15.00;66.85;99578.03;7403457;19;1384;-79
2023/02/26 03:50:54;;;;;;;;;;;;;;;15.00;66.83;99574.50;7407237;19;1012;-79
2023/02/26 03:53:24;;;;;;;;;;;;;;;14.98;66.66;99553.34;7405016;19;1276;-79
2023/02/26 03:55:57;;;;;;;;;;;;;;;15.01;66.44;99582.34;7405054;19;1854;-80
2023/02/26 03:58:25;;;;;;;;;;;;;;;15.01;66.49;99569.03;7409305;19;935;-79
2023/02/26 04:00:56;;;;;;;;;;;;;;;15.00;66.40;99585.13;7405928;19;990;-79
2023/02/26 04:03:30;;;;;;;;;;;;;;;15.01;66.35;99571.69;7405928;19;1080;-79
2023/02/26 04:05:59;;;;;;;;;;;;;;;15.01;66.34;99571.69;7406343;19;985;-79
2023/02/26 04:08:27;;;;;;;;;;;;;;;15.02;66.54;99578.72;7403934;19;1468;-79
2023/02/26 04:10:57;;;;;;;;;;;;;;;15.01;66.26;99568.19;7406466;19;989;-79
2023/02/26 04:13:27;;;;;;;;;;;;;;;14.98;66.44;99587.97;7406216;19;1099;-79
2023/02/26 04:15:55;;;;;;;;;;;;;;;15.02;66.39;99604.47;7404946;19;1858;-79
2023/02/26 04:18:23;;;;;;;;;;;;;;;14.98;66.03;99587.97;7405756;19;1033;-80
2023/02/26 04:20:54;;;;;;;;;;;;;;;14.97;66.33;99586.28;7406047;19;978;-79
2023/02/26 04:23:22;;;;;;;;;;;;;;;15.02;66.31;99597.34;7406482;19;1061;-79
2023/02/26 04:25:51;;;;;;;;;;;;;;;15.01;66.52;99587.66;7405191;19;997;-80
2023/02/26 04:28:19;;;;;;;;;;;;;;;15.07;66.03;99604.91;7405646;19;952;-80
2023/02/26 04:30:47;;;;;;;;;;;;;;;15.06;66.22;99598.75;7406974;19;882;-79
2023/02/26 04:33:16;;;;;;;;;;;;;;;15.07;66.32;99603.09;7405994;19;1004;-80
2023/02/26 04:35:44;;;;;;;;;;;;;;;15.10;66.08;99596.66;7403314;19;1885;-80
2023/02/26 04:38:15;;;;;;;;;;;;;;;15.10;65.86;99605.50;7404629;19;1103;-80
2023/02/26 04:40:43;;;;;;;;;;;;;;;15.09;65.90;99609.13;7403756;19;1087;-80
2023/02/26 04:43:12;;;;;;;;;;;;;;;15.03;65.93;99596.34;7405913;19;1087;-80
2023/02/26 04:45:40;;;;;;;;;;;;;;;15.03;65.99;99607.00;7405177;19;964;-80
2023/02/26 04:48:08;;;;;;;;;;;;;;;15.01;66.35;99571.69;7404604;19;1080;-80
2023/02/26 04:50:36;;;;;;;;;;;;;;;15.01;65.98;99593.00;7405130;19;1062;-80
2023/02/26 04:53:04;;;;;;;;;;;;;;;15.01;66.29;99595.66;7402689;19;1176;-80
2023/02/26 04:55:35;;;;;;;;;;;;;;;14.99;66.45;99615.41;7403892;19;1874;-80
2023/02/26 04:58:04;;;;;;;;;;;;;;;15.01;65.94;99618.78;7404780;19;1004;-79
2023/02/26 05:00:32;;;;;;;;;;;;;;;14.98;66.29;99595.94;7404265;19;1013;-80
2023/02/26 05:03:00;;;;;;;;;;;;;;;14.99;66.15;99589.63;7404725;19;1016;-80
2023/02/26 05:05:28;;;;;;;;;;;;;;;15.01;66.03;99619.63;7404323;19;1100;-80
2023/02/26 05:07:57;;;;;;;;;;;;;;;14.99;66.39;99586.97;7404194;19;1075;-79
2023/02/26 05:10:25;;;;;;;;;;;;;;;15.00;66.23;99623.28;7404233;19;1115;-79
2023/02/26 05:12:56;;;;;;;;;;;;;;;15.04;66.29;99610.50;7404249;19;996;-79
2023/02/26 05:15:24;;;;;;;;;;;;;;;15.01;66.24;99598.31;7403690;19;1850;-79
2023/02/26 05:17:52;;;;;;;;;;;;;;;14.99;66.10;99588.81;7404297;19;988;-79
2023/02/26 05:20:21;;;;;;;;;;;;;;;14.99;66.57;99567.50;7404128;19;1052;-79
2023/02/26 05:22:49;;;;;;;;;;;;;;;15.00;66.18;99595.78;7405603;19;1071;-79
2023/02/26 05:25:17;;;;;;;;;;;;;;;14.99;66.12;99589.63;7402476;19;1087;-80
2023/02/26 05:27:46;;;;;;;;;;;;;;;15.01;66.27;99598.31;7401204;19;1483;-80
2023/02/26 05:30:17;;;;;;;;;;;;;;;15.02;66.01;99613.34;7403930;19;1092;-80
2023/02/26 05:32:46;;;;;;;;;;;;;;;15.03;66.09;99598.19;7403780;19;1024;-80
2023/02/26 05:35:14;;;;;;;;;;;;;;;15.06;66.03;99612.06;7401524;19;1460;-79
2023/02/26 05:37:42;;;;;;;;;;;;;;;15.04;65.77;99598.06;7401714;19;1860;-79
2023/02/26 05:40:12;;;;;;;;;;;;;;;15.02;66.06;99608.00;7403324;19;1020;-80
2023/02/26 05:42:41;;;;;;;;;;;;;;;15.02;65.98;99593.81;7403548;19;972;-79
2023/02/26 05:45:10;;;;;;;;;;;;;;;15.05;66.02;99593.56;7403095;19;1051;-79
2023/02/26 05:47:41;;;;;;;;;;;;;;;15.04;66.06;99600.72;7403237;19;1024;-79
2023/02/26 05:50:10;;;;;;;;;;;;;;;15.01;65.91;99577.03;7402599;19;949;-79
2023/02/26 05:52:38;;;;;;;;;;;;;;;15.03;65.97;99591.03;7402207;19;1152;-80
2023/02/26 05:55:07;;;;;;;;;;;;;;;14.99;66.20;99602.09;7402327;19;1079;-80
2023/02/26 05:57:35;;;;;;;;;;;;;;;14.97;66.11;99591.59;7400675;19;1836;-80
2023/02/26 06:00:04;;;;;;;;;;;;;;;15.03;66.00;99579.56;7402786;19;1186;-80
2023/02/26 06:02:32;;;;;;;;;;;;;;;15.04;65.70;99605.19;7402519;19;1007;-80
2023/02/26 06:05:03;;;;;;;;;;;;;;;15.04;65.88;99616.69;7401470;19;1041;-80
2023/02/26 06:07:31;;;;;;;;;;;;;;;15.01;65.77;99622.28;7401398;19;1000;-80
2023/02/26 06:09:59;;;;;;;;;;;;;;;15.03;65.90;99607.00;7401792;19;1029;-80
2023/02/26 06:12:27;;;;;;;;;;;;;;;15.00;65.78;99594.00;7402531;19;961;-79
2023/02/26 06:14:56;;;;;;;;;;;;;;;15.00;66.04;99614.44;7400575;19;1100;-79
2023/02/26 06:17:24;;;;;;;;;;;;;;;15.05;65.56;99607.72;7400316;19;1839;-79
2023/02/26 06:19:52;;;;;;;;;;;;;;;14.99;65.78;99613.59;7401875;19;1001;-79
2023/02/26 06:22:23;;;;;;;;;;;;;;;14.98;65.84;99606.59;7401585;19;1021;-79
2023/02/26 06:24:53;;;;;;;;;;;;;;;14.98;65.80;99614.59;7401288;19;1060;-79
2023/02/26 06:27:22;;;;;;;;;;;;;;;14.98;65.78;99622.56;7401567;19;1002;-79
2023/02/26 06:29:50;;;;;;;;;;;;;;;15.00;65.66;99627.75;7400785;19;1033;-79
2023/02/26 06:32:18;;;;;;;;;;;;;;;15.03;65.82;99614.16;7402000;19;1020;-79
2023/02/26 06:34:46;;;;;;;;;;;;;;;15.04;65.59;99638.00;7400057;19;1422;-79
2023/02/26 06:37:15;;;;;;;;;;;;;;;15.06;65.86;99628.03;7400238;19;1866;-79
2023/02/26 06:39:46;;;;;;;;;;;;;;;15.06;65.56;99628.03;7399488;19;1489;-79
2023/02/26 06:42:14;;;;;;;;;;;;;;;15.07;65.53;99635.03;7400915;19;1088;-79
2023/02/26 06:44:42;;;;;;;;;;;;;;;15.08;65.68;99628.75;7401618;19;943;-79
2023/02/26 06:47:10;;;;;;;;;;;;;;;15.09;65.33;99634.91;7400722;19;1090;-79
2023/02/26 06:49:39;;;;;;;;;;;;;;;15.13;65.73;99632.81;7400280;19;1024;-79
2023/02/26 06:52:07;;;;;;;;;;;;;;;15.10;65.22;99633.94;7399880;19;1026;-79
2023/02/26 06:54:35;;;;;;;;;;;;;;;15.07;65.38;99651.00;7400882;19;970;-79
2023/02/26 06:57:06;;;;;;;;;;;;;;;15.06;65.42;99638.69;7400294;19;1857;-79
2023/02/26 06:59:34;;;;;;;;;;;;;;;15.08;65.67;99641.19;7399186;19;1485;-79
2023/02/26 07:02:02;;;;;;;;;;;;;;;15.08;65.43;99634.06;7399604;19;994;-79
2023/02/26 07:04:31;;;;;;;;;;;;;;;15.07;65.64;99644.84;7399969;19;1087;-79
2023/02/26 07:06:59;;;;;;;;;;;;;;;15.02;65.30;99629.31;7399147;19;1396;-79
2023/02/26 07:09:28;;;;;;;;;;;;;;;15.05;65.77;99630.84;7400075;19;1013;-79
2023/02/26 07:11:56;;;;;;;;;;;;;;;15.06;65.66;99621.84;7400314;19;947;-79
2023/02/26 07:14:27;;;;;;;;;;;;;;;15.08;65.35;99625.22;7399663;19;1143;-79
2023/02/26 07:16:55;;;;;;;;;;;;;;;15.05;65.38;99620.19;7400489;19;1813;-79
2023/02/26 07:19:23;;;;;;;;;;;;;;;15.10;65.12;99625.97;7407621;19;1017;-79
2023/02/26 07:21:53;;;;;;;;;;;;;;;15.10;65.44;99607.31;7404690;19;1487;-80
2023/02/26 07:24:22;;;;;;;;;;;;;;;15.08;65.34;99638.53;7407577;19;1024;-80
2023/02/26 07:26:50;;;;;;;;;;;;;;;15.06;65.55;99612.06;7407891;19;1041;-79
2023/02/26 07:29:18;;;;;;;;;;;;;;;15.09;65.22;99606.44;7404571;19;1497;-79
2023/02/26 07:31:49;;;;;;;;;;;;;;;15.13;65.22;99623.00;7407679;19;989;-79
2023/02/26 07:34:17;;;;;;;;;;;;;;;15.18;65.00;99620.78;7407024;19;1414;-79
2023/02/26 07:36:45;;;;;;;;;;;;;;;15.21;64.65;99627.63;7406188;19;1811;-79
2023/02/26 07:39:14;;;;;;;;;;;;;;;15.26;64.71;99615.59;7407056;19;935;-79
2023/02/26 07:41:42;;;;;;;;;;;;;;;15.27;64.62;99633.25;7407383;19;1009;-80
2023/02/26 07:44:10;;;;;;;;;;;;;;;15.30;64.57;99621.50;7407149;19;1116;-80
2023/02/26 07:46:39;;;;;;;;;;;;;;;15.25;64.67;99640.53;7406131;19;1052;-80
2023/02/26 07:49:09;;;;;;;;;;;;;;;15.26;64.78;99634.25;7405437;19;985;-80
2023/02/26 07:51:39;;;;;;;;;;;;;;;15.25;64.40;99627.22;7406866;19;1032;-80
2023/02/26 07:54:07;;;;;;;;;;;;;;;15.24;64.59;99638.88;7406371;19;1057;-80
2023/02/26 07:56:37;;;;;;;;;;;;;;;15.25;64.54;99627.22;7406145;19;1851;-80
2023/02/26 07:59:05;;;;;;;;;;;;;;;15.27;64.52;99635.06;7406147;19;1150;-80
2023/02/26 08:01:34;;;;;;;;;;;;;;;15.25;64.58;99637.03;7406146;19;1064;-80
2023/02/26 08:04:02;;;;;;;;;;;;;;;15.28;64.27;99618.13;7406964;19;1057;-80
2023/02/26 08:06:34;;;;;;;;;;;;;;;15.22;64.61;99631.97;7405794;19;1091;-80
2023/02/26 08:09:02;;;;;;;;;;;;;;;15.27;64.28;99637.72;7405742;19;1065;-79
2023/02/26 08:11:31;;;;;;;;;;;;;;;15.31;64.75;99647.97;7403578;19;1546;-79
2023/02/26 08:14:00;;;;;;;;;;;;;;;15.24;64.64;99644.19;7405413;19;1001;-80
2023/02/26 08:16:28;;;;;;;;;;;;;;;15.24;64.43;99640.66;7405253;19;1868;-80
2023/02/26 08:18:56;;;;;;;;;;;;;;;15.24;64.46;99646.84;7406440;19;982;-80
2023/02/26 08:21:25;;;;;;;;;;;;;;;15.27;64.28;99651.06;7405993;19;1017;-80
2023/02/26 08:23:55;;;;;;;;;;;;;;;15.27;64.45;99648.38;7405893;19;1070;-79
2023/02/26 08:26:24;;;;;;;;;;;;;;;15.25;64.47;99643.19;7405613;19;1084;-80
2023/02/26 08:28:52;;;;;;;;;;;;;;;15.30;64.57;99643.63;7403167;19;1069;-80
2023/02/26 08:31:20;;;;;;;;;;;;;;;15.34;64.55;99654.84;7405118;19;991;-79
2023/02/26 08:33:49;;;;;;;;;;;;;;;15.35;64.25;99642.38;7405943;19;1407;-79
2023/02/26 08:36:17;;;;;;;;;;;;;;;15.39;63.97;99663.25;7404075;19;994;-79
2023/02/26 08:38:45;;;;;;;;;;;;;;;15.35;64.41;99653.03;7401766;19;1841;-80
2023/02/26 08:41:16;;;;;;;;;;;;;;;15.35;64.00;99653.88;7402496;19;1436;-80
2023/02/26 08:43:45;;;;;;;;;;;;;;;15.32;64.51;99651.50;7405457;19;957;-80
2023/02/26 08:46:13;;;;;;;;;;;;;;;15.39;63.90;99636.63;7405504;19;963;-80
2023/02/26 08:48:41;;;;;;;;;;;;;;;15.47;63.93;99639.41;7405206;19;945;-80
2023/02/26 08:51:09;;;;;;;;;;;;;;;15.46;63.92;99639.59;7404247;19;1143;-80
2023/02/26 08:53:38;;;;;;;;;;;;;;;15.50;63.92;99651.66;7402714;19;1176;-80
2023/02/26 08:56:07;;;;;;;;;;;;;;;15.45;63.99;99644.06;7405131;19;1037;-80
2023/02/26 08:58:38;;;;;;;;;;;;;;;15.51;63.91;99653.31;7403066;19;1843;-80
2023/02/26 09:01:06;;;;;;;;;;;;;;;15.48;64.01;99643.78;7404027;19;1060;-80
2023/02/26 09:03:35;;;;;;;;;;;;;;;15.48;64.23;99638.47;7404265;19;1014;-80
2023/02/26 09:06:03;;;;;;;;;;;;;;;15.45;64.12;99649.38;7403836;19;1036;-80
2023/02/26 09:08:32;;;;;;;;;;;;;;;15.46;63.84;99644.91;7404684;19;1013;-80
2023/02/26 09:11:01;;;;;;;;;;;;;;;15.45;64.12;99660.03;7405467;19;1063;-80
2023/02/26 09:13:30;;;;;;;;;;;;;;;15.39;63.96;99639.28;7401595;19;1388;-79
2023/02/26 09:16:00;;;;;;;;;;;;;;;15.37;64.21;99638.59;7401803;19;1470;-80
2023/02/26 09:18:29;;;;;;;;;;;;;;;15.36;64.06;99644.03;7402017;19;1843;-80
2023/02/26 09:20:57;;;;;;;;;;;;;;;15.38;64.08;99656.25;7403597;19;1080;-80
2023/02/26 09:23:25;;;;;;;;;;;;;;;15.36;64.11;99644.91;7403811;19;1094;-80
2023/02/26 09:25:55;;;;;;;;;;;;;;;15.36;64.44;99644.91;7401164;19;1398;-80
2023/02/26 09:28:23;;;;;;;;;;;;;;;15.36;64.51;99644.91;7402848;19;1102;-80
2023/02/26 09:30:52;;;;;;;;;;;;;;;15.35;64.10;99647.69;7403036;19;1071;-80
2023/02/26 09:33:24;;;;;;;;;;;;;;;15.35;64.01;99645.03;7403063;19;1115;-80
2023/02/26 09:35:52;;;;;;;;;;;;;;;15.37;64.36;99625.25;7401665;19;1414;-79
2023/02/26 09:38:21;;;;;;;;;;;;;;;15.37;64.22;99659.91;7400904;19;1841;-80
2023/02/26 09:40:52;;;;;;;;;;;;;;;15.38;64.46;99653.59;7400247;19;1390;-80
2023/02/26 09:43:28;;;;;;;;;;;;;;;15.34;64.03;99654.84;7402586;19;1040;-80
2023/02/26 09:45:58;;;;;;;;;;;;;;;15.38;64.22;99650.94;7403322;19;1110;-79
2023/02/26 09:48:30;;;;;;;;;;;;;;;15.37;64.08;99645.75;7402510;19;1021;-79
2023/02/26 09:51:01;;;;;;;;;;;;;;;15.37;64.39;99657.22;7400387;19;1163;-80
2023/02/26 09:53:30;;;;;;;;;;;;;;;15.41;64.26;99657.78;7401188;19;1162;-80
2023/02/26 09:56:02;;;;;;;;;;;;;;;15.41;64.25;99663.97;7401983;19;1037;-80
2023/02/26 09:58:31;;;;;;;;;;;;;;;15.45;64.14;99670.69;7401531;19;1841;-80
2023/02/26 10:01:05;;;;;;;;;;;;;;;15.41;64.37;99658.63;7402343;19;1056;-80
2023/02/26 10:03:40;;;;;;;;;;;;;;;15.43;64.08;99675.31;7400759;19;1391;-80
2023/02/26 10:06:15;;;;;;;;;;;;;;;15.42;64.23;99670.13;7401770;19;1099;-80
2023/02/26 10:08:48;;;;;;;;;;;;;;;15.44;64.07;99663.69;7402244;19;1134;-80
2023/02/26 10:11:28;;;;;;;;;;;;;;;15.45;63.82;99665.38;7402147;19;1095;-80
2023/02/26 10:13:58;;;;;;;;;;;;;;;15.41;64.30;99669.28;7402071;19;1040;-80
2023/02/26 10:16:28;;;;;;;;;;;;;;;15.42;63.85;99664.78;7401307;19;1099;-80
2023/02/26 10:19:01;;;;;;;;;;;;;;;15.43;64.20;99672.66;7400653;19;1846;-80
2023/02/26 10:21:32;;;;;;;;;;;;;;;15.40;64.48;99667.63;7401812;19;988;-79
2023/02/26 10:24:01;;;;;;;;;;;;;;;15.39;64.43;99662.44;7402228;19;984;-79
2023/02/26 10:26:33;;;;;;;;;;;;;;;15.40;64.38;99669.41;7401274;19;1036;-79
2023/02/26 10:29:04;;;;;;;;;;;;;;;15.41;64.10;99668.44;7401020;19;1019;-80
2023/02/26 10:31:37;;;;;;;;;;;;;;;15.42;64.34;99663.00;7400735;19;1067;-80
2023/02/26 10:34:18;;;;;;;;;;;;;;;15.43;64.24;99662.00;7400493;19;1399;-79
2023/02/26 10:36:53;;;;;;;;;;;;;;;15.47;64.24;99655.41;7401865;19;1029;-80
2023/02/26 10:39:29;;;;;;;;;;;;;;;15.46;63.77;99652.91;7398908;19;1836;-80
2023/02/26 10:42:01;;;;;;;;;;;;;;;15.47;63.95;99636.75;7400569;19;1402;-80
2023/02/26 10:44:34;;;;;;;;;;;;;;;15.44;64.21;99634.38;7399924;19;1017;-80
2023/02/26 10:47:06;;;;;;;;;;;;;;;15.45;63.76;99636.06;7400248;19;1134;-80
2023/02/26 10:49:47;;;;;;;;;;;;;;;15.50;64.02;99641.00;7401462;19;995;-80
2023/02/26 10:52:17;;;;;;;;;;;;;;;15.44;63.66;99629.06;7397890;19;1098;-80
2023/02/26 10:54:49;;;;;;;;;;;;;;;15.44;63.90;99639.72;7400120;19;997;-80
2023/02/26 10:57:20;;;;;;;;;;;;;;;15.45;64.10;99638.72;7400319;19;1008;-80
2023/02/26 10:59:48;;;;;;;;;;;;;;;15.46;63.79;99644.91;7400606;19;993;-80
2023/02/26 11:02:31;;;;;;;;;;;;;;;15.47;64.08;99642.09;7398805;19;1399;-79
2023/02/26 11:05:02;;;;;;;;;;;;;;;15.49;63.90;99648.13;7400374;19;1391;-79
2023/02/26 11:07:32;;;;;;;;;;;;;;;15.47;63.96;99642.09;7400766;19;1010;-79
2023/02/26 11:10:00;;;;;;;;;;;;;;;15.46;63.82;99645.75;7400610;19;1009;-80
2023/02/26 11:12:29;;;;;;;;;;;;;;;15.42;63.83;99639.03;7400173;19;1040;-80
2023/02/26 11:14:57;;;;;;;;;;;;;;;15.46;64.10;99639.59;7400160;19;1063;-80
2023/02/26 11:17:28;;;;;;;;;;;;;;;15.48;63.77;99643.78;7400177;19;1848;-80
2023/02/26 11:19:59;;;;;;;;;;;;;;;15.46;64.13;99631.59;7400347;19;1029;-80
2023/02/26 11:22:32;;;;;;;;;;;;;;;15.46;63.96;99631.59;7399395;19;1218;-80
2023/02/26 11:25:01;;;;;;;;;;;;;;;15.47;64.09;99642.09;7399866;19;1073;-80
2023/02/26 11:27:34;;;;;;;;;;;;;;;15.54;63.89;99641.53;7399778;19;996;-80
2023/02/26 11:30:07;;;;;;;;;;;;;;;15.51;63.82;99630.16;7399668;19;980;-80
2023/02/26 11:32:38;;;;;;;;;;;;;;;15.55;63.65;99637.91;7399155;19;996;-80
2023/02/26 11:35:09;;;;;;;;;;;;;;;15.54;63.37;99630.88;7397868;19;1432;-79
2023/02/26 11:37:41;;;;;;;;;;;;;;;15.57;63.59;99654.56;7399587;19;1843;-79
2023/02/26 11:40:16;;;;;;;;;;;;;;;15.58;63.24;99653.56;7400202;19;1042;-80
2023/02/26 11:42:46;;;;;;;;;;;;;;;15.60;63.35;99654.31;7399861;19;1056;-80
2023/02/26 11:45:16;;;;;;;;;;;;;;;15.58;63.33;99669.56;7398231;19;989;-80
2023/02/26 11:47:44;;;;;;;;;;;;;;;15.57;63.50;99674.06;7399300;19;993;-80
2023/02/26 11:50:16;;;;;;;;;;;;;;;15.58;63.40;99680.22;7399781;19;1043;-80
2023/02/26 11:52:48;;;;;;;;;;;;;;;15.55;63.66;99702.69;7398662;19;1187;-80
2023/02/26 11:55:20;;;;;;;;;;;;;;;15.54;63.69;99673.50;7398866;19;1107;-79
2023/02/26 11:57:52;;;;;;;;;;;;;;;15.50;63.90;99684.44;7395662;19;1854;-79
2023/02/26 12:00:22;;;;;;;;;;;;;;;15.50;63.58;99668.47;7397651;19;1060;-80
2023/02/26 12:02:50;;;;;;;;;;;;;;;15.52;63.89;99671.84;7398035;19;1484;-80
2023/02/26 12:05:19;;;;;;;;;;;;;;;15.57;63.86;99686.56;7405899;19;1127;-80
2023/02/26 12:07:50;;;;;;;;;;;;;;;15.59;63.61;99665.94;7405794;19;1032;-79
2023/02/26 12:10:20;;;;;;;;;;;;;;;15.63;63.52;99662.00;7406195;19;1030;-79
2023/02/26 12:12:53;;;;;;;;;;;;;;;15.64;63.71;99648.56;7405051;19;1002;-79
2023/02/26 12:15:25;;;;;;;;;;;;;;;15.66;63.60;99635.94;7406571;19;1137;-79
2023/02/26 12:18:07;;;;;;;;;;;;;;;15.64;63.46;99643.22;7406654;19;1871;-80
2023/02/26 12:20:42;;;;;;;;;;;;;;;15.67;63.02;99647.41;7402800;19;1478;-80
2023/02/26 12:23:24;;;;;;;;;;;;;;;15.63;63.47;99646.03;7405025;19;1028;-80
2023/02/26 12:25:59;;;;;;;;;;;;;;;15.64;63.29;99631.72;7405216;19;1001;-79
2023/02/26 12:28:44;;;;;;;;;;;;;;;15.60;63.33;99627.66;7405840;19;1253;-79
2023/02/26 12:31:23;;;;;;;;;;;;;;;15.60;62.98;99639.16;7404579;19;1021;-79
2023/02/26 12:33:57;;;;;;;;;;;;;;;15.58;63.34;99630.47;7402383;19;1395;-79
2023/02/26 12:36:33;;;;;;;;;;;;;;;15.57;63.37;99631.44;7404661;19;1075;-80
2023/02/26 12:39:11;;;;;;;;;;;;;;;15.55;63.29;99640.56;7404365;19;1863;-80
2023/02/26 12:41:49;;;;;;;;;;;;;;;15.56;63.35;99639.56;7405927;19;1123;-80
2023/02/26 12:44:25;;;;;;;;;;;;;;;15.55;63.64;99637.91;7404734;19;1079;-80
2023/02/26 12:47:04;;;;;;;;;;;;;;;15.50;63.75;99641.81;7402000;19;1379;-80
2023/02/26 12:49:53;;;;;;;;;;;;;;;15.50;63.77;99651.66;7404141;19;1099;-80
2023/02/26 12:52:30;;;;;;;;;;;;;;;15.49;63.38;99650.78;7403728;19;1070;-80
2023/02/26 12:55:13;;;;;;;;;;;;;;;15.48;63.85;99634.97;7404887;19;943;-80
2023/02/26 12:57:55;;;;;;;;;;;;;;;15.47;63.62;99646.59;7404756;19;1051;-80
2023/02/26 13:00:32;;;;;;;;;;;;;;;15.48;63.82;99649.13;7401839;19;1836;-80
2023/02/26 13:03:21;;;;;;;;;;;;;;;15.47;63.54;99652.75;7404175;19;1042;-80
2023/02/26 13:06:02;;;;;;;;;;;;;;;15.45;63.55;99651.22;7402085;19;1241;-80
2023/02/26 13:08:34;;;;;;;;;;;;;;;15.44;63.49;99647.72;7402940;19;985;-80
2023/02/26 13:11:09;;;;;;;;;;;;;;;15.46;63.88;99660.91;7403392;19;1156;-80
2023/02/26 13:13:46;;;;;;;;;;;;;;;15.49;63.62;99648.13;7402451;19;996;-79
2023/02/26 13:16:22;;;;;;;;;;;;;;;15.49;63.93;99655.28;7402319;19;1059;-80
2023/02/26 13:18:53;;;;;;;;;;;;;;;15.50;63.70;99663.13;7402483;19;1838;-80